createdAt,value
2018-10-17T00:00:45.541Z,87.50
2018-10-17T00:03:14.124Z,87.03
2018-10-17T00:05:42.680Z,87.64
2018-10-17T00:08:11.203Z,87.19
2018-10-17T00:10:39.729Z,87.55
2018-10-17T00:13:08.324Z,87.30
2018-10-17T00:15:36.836Z,86.60
2018-10-17T00:18:06.233Z,86.56
2018-10-17T00:20:35.893Z,85.60
2018-10-17T00:23:06.610Z,85.61
2018-10-17T00:25:35.928Z,84.37
2018-10-17T00:28:05.282Z,84.68
2018-10-17T00:30:33.965Z,83.97
2018-10-17T00:33:04.202Z,83.47
2018-10-17T00:35:32.976Z,83.25
2018-10-17T00:38:03.249Z,83.28
2018-10-17T00:40:31.807Z,84.02
2018-10-17T00:43:00.374Z,84.15
2018-10-17T00:45:28.873Z,84.33
2018-10-17T00:47:57.785Z,84.03
2018-10-17T00:50:26.404Z,85.04
2018-10-17T00:52:55.354Z,84.96
2018-10-17T00:55:23.859Z,85.15
2018-10-17T00:57:53.600Z,85.39
2018-10-17T01:00:22.355Z,84.57
2018-10-17T01:02:50.848Z,84.89
2018-10-17T01:05:19.335Z,84.87
2018-10-17T01:07:47.857Z,85.31
2018-10-17T01:10:16.401Z,85.70
2018-10-17T01:12:44.924Z,86.84
2018-10-17T01:15:13.467Z,86.65
2018-10-17T01:17:42.737Z,86.87
2018-10-17T01:20:11.331Z,86.81
2018-10-17T01:22:39.872Z,87.45
2018-10-17T01:25:09.178Z,87.77
2018-10-17T01:27:37.647Z,88.02
2018-10-17T01:30:07.340Z,87.46
2018-10-17T01:32:35.923Z,87.75
2018-10-17T01:35:06.002Z,87.78
2018-10-17T01:37:34.543Z,88.08
2018-10-17T01:40:07.048Z,88.56
2018-10-17T01:42:37.644Z,88.38
2018-10-17T01:45:07.338Z,88.44
2018-10-17T01:47:36.100Z,88.24
2018-10-17T01:50:06.554Z,88.17
2018-10-17T01:52:35.636Z,88.78
2018-10-17T01:55:05.749Z,88.55
2018-10-17T01:57:34.292Z,88.06
2018-10-17T02:00:04.846Z,89.26
2018-10-17T02:02:33.390Z,89.84
2018-10-17T02:05:03.632Z,89.10
2018-10-17T02:07:32.261Z,90.00
2018-10-17T02:10:00.943Z,89.81
2018-10-17T02:12:29.653Z,89.26
2018-10-17T02:14:58.208Z,89.51
2018-10-17T02:17:26.730Z,90.13
2018-10-17T02:19:55.302Z,90.17
2018-10-17T02:22:23.830Z,89.86
2018-10-17T02:24:52.309Z,89.46
2018-10-17T02:27:20.809Z,90.41
2018-10-17T02:29:49.371Z,90.02
2018-10-17T02:32:20.816Z,90.02
2018-10-17T02:34:54.613Z,90.00
2018-10-17T02:37:23.130Z,89.87
2018-10-17T02:39:51.621Z,89.71
2018-10-17T02:42:20.457Z,89.99
2018-10-17T02:44:48.945Z,90.74
2018-10-17T02:47:17.465Z,89.99
2018-10-17T02:49:46.000Z,90.87
2018-10-17T02:52:14.492Z,90.40
2018-10-17T02:54:43.093Z,90.60
2018-10-17T02:57:11.679Z,90.49
2018-10-17T02:59:40.192Z,90.84
2018-10-17T03:02:08.793Z,91.26
2018-10-17T03:04:37.290Z,91.57
2018-10-17T03:07:09.070Z,91.00
2018-10-17T03:09:37.559Z,91.26
2018-10-17T03:12:06.255Z,91.37
2018-10-17T03:14:34.811Z,91.42
2018-10-17T03:17:04.628Z,91.72
2018-10-17T03:19:33.052Z,92.36
2018-10-17T03:22:04.309Z,92.33
2018-10-17T03:24:32.816Z,92.08
2018-10-17T03:29:36.201Z,91.66
2018-10-17T03:32:05.683Z,91.78
2018-10-17T03:34:34.425Z,91.54
2018-10-17T03:37:04.778Z,92.14
2018-10-17T03:39:33.331Z,92.67
2018-10-17T03:42:03.095Z,92.63
2018-10-17T03:44:31.621Z,92.20
2018-10-17T03:47:00.211Z,92.65
2018-10-17T03:49:28.749Z,92.62
2018-10-17T03:51:57.265Z,92.77
2018-10-17T03:54:25.828Z,92.32
2018-10-17T03:56:54.374Z,92.73
2018-10-17T03:59:23.073Z,92.26
2018-10-17T04:01:51.628Z,91.81
2018-10-17T04:04:20.134Z,91.94
2018-10-17T04:06:48.644Z,93.34
2018-10-17T04:09:17.171Z,93.13
2018-10-17T04:11:45.730Z,93.01
2018-10-17T04:14:14.241Z,92.60
2018-10-17T04:16:42.842Z,92.68
2018-10-17T04:19:11.414Z,92.90
2018-10-17T04:21:40.550Z,93.19
2018-10-17T04:24:09.056Z,93.13
2018-10-17T04:26:37.627Z,93.84
2018-10-17T04:29:06.425Z,93.75
2018-10-17T04:31:35.006Z,93.10
2018-10-17T04:34:06.738Z,93.78
2018-10-17T04:36:35.422Z,93.44
2018-10-17T04:39:07.832Z,93.92
2018-10-17T04:41:36.350Z,93.61
2018-10-17T04:44:05.270Z,93.86
2018-10-17T04:46:33.797Z,94.30
2018-10-17T04:49:03.900Z,93.83
2018-10-17T04:51:32.373Z,94.29
2018-10-17T04:54:00.915Z,94.13
2018-10-17T04:56:29.481Z,94.29
2018-10-17T04:58:58.048Z,93.96
2018-10-17T05:01:27.281Z,94.23
2018-10-17T05:03:55.799Z,94.33
2018-10-17T05:06:24.484Z,94.30
2018-10-17T05:08:53.932Z,94.00
2018-10-17T05:11:22.626Z,94.59
2018-10-17T05:13:52.731Z,94.87
2018-10-17T05:16:21.722Z,94.61
2018-10-17T05:18:50.269Z,94.73
2018-10-17T05:21:18.847Z,94.16
2018-10-17T05:23:47.378Z,94.22
2018-10-17T05:26:15.963Z,94.30
2018-10-17T05:28:44.490Z,94.77
2018-10-17T05:31:13.077Z,95.00
2018-10-17T05:33:41.531Z,94.42
2018-10-17T05:36:10.031Z,94.54
2018-10-17T05:38:38.720Z,95.18
2018-10-17T05:41:07.358Z,94.88
2018-10-17T05:43:35.939Z,95.03
2018-10-17T05:46:05.226Z,95.21
2018-10-17T05:48:33.716Z,95.63
2018-10-17T05:51:03.412Z,95.48
2018-10-17T05:53:31.945Z,95.05
2018-10-17T05:56:00.679Z,95.14
2018-10-17T05:58:29.244Z,95.13
2018-10-17T06:00:57.773Z,95.41
2018-10-17T06:03:26.770Z,96.21
2018-10-17T06:05:55.274Z,96.00
2018-10-17T06:08:23.801Z,95.13
2018-10-17T06:10:52.564Z,95.60
2018-10-17T06:13:21.052Z,95.74
2018-10-17T06:15:49.792Z,95.16
2018-10-17T06:18:18.361Z,95.87
2018-10-17T06:20:47.176Z,94.59
2018-10-17T06:23:15.718Z,94.60
2018-10-17T06:25:45.137Z,95.15
2018-10-17T06:28:13.720Z,94.81
2018-10-17T06:30:42.270Z,95.39
2018-10-17T06:33:10.816Z,95.31
2018-10-17T06:35:39.342Z,95.25
2018-10-17T06:38:07.899Z,95.35
2018-10-17T06:40:36.569Z,95.60
2018-10-17T06:43:05.592Z,95.46
2018-10-17T06:45:34.368Z,95.73
2018-10-17T06:48:04.793Z,95.05
2018-10-17T06:50:33.278Z,95.77
2018-10-17T06:53:03.379Z,94.55
2018-10-17T06:55:31.911Z,94.41
2018-10-17T06:58:00.409Z,94.65
2018-10-17T07:00:28.972Z,94.53
2018-10-17T07:02:57.680Z,95.08
2018-10-17T07:05:27.184Z,95.11
2018-10-17T07:07:55.706Z,94.95
2018-10-17T07:10:24.309Z,94.56
2018-10-17T07:12:53.189Z,93.97
2018-10-17T07:15:22.084Z,93.19
2018-10-17T07:17:50.588Z,92.90
2018-10-17T07:20:19.132Z,92.57
2018-10-17T07:22:47.826Z,91.82
2018-10-17T07:25:16.463Z,91.09
2018-10-17T07:27:44.959Z,90.68
2018-10-17T07:30:13.508Z,91.26
2018-10-17T07:32:41.988Z,90.86
2018-10-17T07:35:11.072Z,91.74
2018-10-17T07:37:39.582Z,91.32
2018-10-17T07:40:08.173Z,90.99
2018-10-17T07:42:36.804Z,90.16
2018-10-17T07:45:06.149Z,90.31
2018-10-17T07:47:34.717Z,90.22
2018-10-17T07:50:05.471Z,89.99
2018-10-17T07:52:34.253Z,90.55
2018-10-17T07:55:04.489Z,90.54
2018-10-17T07:57:33.014Z,89.67
2018-10-17T08:00:03.259Z,89.19
2018-10-17T08:02:31.718Z,87.36
2018-10-17T08:05:00.357Z,87.29
2018-10-17T08:07:28.898Z,86.86
2018-10-17T08:09:57.389Z,85.92
2018-10-17T08:12:25.941Z,86.11
2018-10-17T08:14:54.441Z,86.79
2018-10-17T08:17:23.000Z,87.49
2018-10-17T08:19:51.560Z,87.28
2018-10-17T08:22:20.084Z,86.92
2018-10-17T08:24:48.633Z,85.75
2018-10-17T08:27:17.206Z,84.79
2018-10-17T08:29:45.722Z,85.15
2018-10-17T08:32:14.405Z,84.79
2018-10-17T08:34:42.917Z,84.53
2018-10-17T08:37:11.768Z,83.23
2018-10-17T08:39:42.342Z,82.40
2018-10-17T08:42:10.858Z,81.67
2018-10-17T08:44:39.384Z,82.03
2018-10-17T08:47:08.020Z,82.37
2018-10-17T08:49:36.537Z,80.90
2018-10-17T08:52:05.901Z,80.81
2018-10-17T08:54:34.798Z,80.24
2018-10-17T08:57:05.133Z,78.78
2018-10-17T08:59:33.731Z,79.43
2018-10-17T09:02:04.188Z,78.77
2018-10-17T09:04:32.757Z,76.91
2018-10-17T09:07:03.187Z,76.96
2018-10-17T09:09:34.779Z,76.99
2018-10-17T09:12:05.099Z,76.66
2018-10-17T09:14:33.549Z,76.14
2018-10-17T09:17:04.542Z,74.55
2018-10-17T09:19:33.369Z,75.26
2018-10-17T09:22:05.126Z,73.63
2018-10-17T09:24:33.285Z,74.28
2018-10-17T09:27:04.607Z,74.03
2018-10-17T09:29:33.301Z,71.98
2018-10-17T09:32:02.743Z,70.66
2018-10-17T09:34:31.587Z,71.94
2018-10-17T09:37:00.152Z,71.45
2018-10-17T09:39:28.681Z,71.11
2018-10-17T09:41:57.261Z,71.17
2018-10-17T09:44:25.739Z,70.53
2018-10-17T09:46:54.263Z,69.15
2018-10-17T09:49:22.825Z,70.48
2018-10-17T09:51:51.355Z,69.52
2018-10-17T09:54:19.983Z,67.53
2018-10-17T09:56:48.513Z,67.63
2018-10-17T09:59:17.067Z,67.53
2018-10-17T10:01:50.899Z,67.18
2018-10-17T10:04:19.897Z,66.56
2018-10-17T10:06:48.749Z,65.85
2018-10-17T10:09:17.249Z,68.07
2018-10-17T10:11:45.847Z,65.96
2018-10-17T10:14:14.371Z,67.18
2018-10-17T10:16:42.878Z,65.35
2018-10-17T10:19:11.424Z,64.68
2018-10-17T10:21:40.168Z,64.80
2018-10-17T10:24:08.688Z,66.48
2018-10-17T10:26:37.241Z,64.39
2018-10-17T10:29:07.217Z,64.05
2018-10-17T10:31:35.722Z,65.10
2018-10-17T10:34:08.800Z,65.11
2018-10-17T10:36:37.462Z,65.86
2018-10-17T10:39:09.722Z,64.44
2018-10-17T10:41:38.273Z,64.78
2018-10-17T10:44:06.855Z,64.75
2018-10-17T10:46:35.465Z,62.56
2018-10-17T10:49:05.563Z,63.07
2018-10-17T10:51:34.048Z,62.50
2018-10-17T10:54:04.219Z,61.43
2018-10-17T10:56:32.805Z,62.80
2018-10-17T10:59:05.026Z,64.07
2018-10-17T11:01:33.658Z,62.39
2018-10-17T11:04:04.002Z,62.25
2018-10-17T11:06:32.529Z,61.14
2018-10-17T11:09:03.581Z,61.62
2018-10-17T11:11:32.140Z,63.52
2018-10-17T11:14:00.697Z,63.95
2018-10-17T11:16:29.205Z,63.25
2018-10-17T11:18:57.742Z,62.55
2018-10-17T11:21:26.291Z,62.09
2018-10-17T11:23:54.791Z,60.99
2018-10-17T11:26:23.328Z,60.87
2018-10-17T11:28:52.141Z,60.59
2018-10-17T11:31:20.704Z,60.12
2018-10-17T11:33:49.628Z,60.00
2018-10-17T11:36:18.145Z,59.51
2018-10-17T11:38:46.954Z,60.84
2018-10-17T11:41:15.518Z,60.89
2018-10-17T11:43:44.077Z,61.18
2018-10-17T11:46:12.608Z,62.19
2018-10-17T11:48:41.160Z,61.69
2018-10-17T11:51:10.298Z,62.66
2018-10-17T11:53:38.762Z,61.99
2018-10-17T11:56:08.080Z,59.16
2018-10-17T11:58:36.613Z,58.24
2018-10-17T12:01:05.326Z,57.08
2018-10-17T12:03:33.893Z,57.19
2018-10-17T12:06:04.276Z,57.15
2018-10-17T12:08:33.002Z,55.77
2018-10-17T12:11:03.497Z,52.05
2018-10-17T12:13:32.034Z,53.75
2018-10-17T12:16:00.549Z,51.88
2018-10-17T12:18:29.508Z,51.54
2018-10-17T12:20:58.128Z,52.17
2018-10-17T12:23:27.343Z,52.80
2018-10-17T12:25:55.938Z,51.42
2018-10-17T12:28:24.868Z,55.20
2018-10-17T12:30:53.408Z,52.79
2018-10-17T12:33:21.947Z,50.61
2018-10-17T12:35:51.410Z,47.94
2018-10-17T12:38:19.940Z,45.86
2018-10-17T12:40:48.657Z,48.30
2018-10-17T12:43:17.090Z,46.07
2018-10-17T12:45:45.683Z,43.04
2018-10-17T12:48:14.221Z,49.91
2018-10-17T12:50:43.016Z,52.42
2018-10-17T12:53:11.633Z,51.11
2018-10-17T12:55:40.164Z,48.67
2018-10-17T12:58:08.862Z,46.50
2018-10-17T13:00:37.401Z,47.51
2018-10-17T13:03:06.048Z,47.81
2018-10-17T13:05:34.592Z,47.77
2018-10-17T13:08:04.521Z,51.52
2018-10-17T13:10:33.105Z,49.97
2018-10-17T13:13:02.750Z,46.83
2018-10-17T13:15:31.257Z,45.78
2018-10-17T13:17:59.799Z,44.98
2018-10-17T13:20:28.382Z,50.29
2018-10-17T13:22:56.989Z,51.59
2018-10-17T13:25:25.487Z,49.62
2018-10-17T13:27:53.996Z,48.67
2018-10-17T13:30:22.531Z,48.77
2018-10-17T13:32:51.057Z,49.45
2018-10-17T13:35:19.688Z,50.67
2018-10-17T13:37:48.253Z,50.63
2018-10-17T13:40:16.792Z,50.42
2018-10-17T13:42:45.324Z,52.34
2018-10-17T13:45:14.361Z,48.76
2018-10-17T13:47:42.997Z,46.54
2018-10-17T13:50:12.432Z,45.47
2018-10-17T13:52:41.045Z,44.11
2018-10-17T13:55:10.072Z,46.10
2018-10-17T13:57:38.677Z,44.29
2018-10-17T14:00:10.623Z,44.70
2018-10-17T14:02:39.197Z,43.91
2018-10-17T14:05:07.915Z,47.70
2018-10-17T14:07:36.467Z,48.19
2018-10-17T14:10:05.888Z,46.63
2018-10-17T14:12:34.974Z,50.56
2018-10-17T14:15:06.369Z,47.72
2018-10-17T14:17:34.882Z,50.28
2018-10-17T14:20:05.444Z,55.51
2018-10-17T14:22:34.028Z,51.86
2018-10-17T14:25:03.688Z,52.65
2018-10-17T14:27:32.220Z,53.31
2018-10-17T14:30:00.807Z,53.02
2018-10-17T14:32:29.418Z,57.52
2018-10-17T14:34:57.905Z,59.04
2018-10-17T14:37:26.627Z,59.87
2018-10-17T14:39:55.435Z,56.22
2018-10-17T14:42:23.970Z,57.40
2018-10-17T14:44:52.583Z,59.88
2018-10-17T14:47:21.157Z,58.95
2018-10-17T14:49:49.712Z,59.04
2018-10-17T14:52:18.269Z,61.05
2018-10-17T14:54:46.836Z,61.61
2018-10-17T14:57:15.780Z,62.99
2018-10-17T14:59:44.254Z,61.46
2018-10-17T15:02:12.832Z,61.03
2018-10-17T15:04:41.384Z,62.79
2018-10-17T15:07:09.906Z,62.15
2018-10-17T15:09:38.656Z,63.95
2018-10-17T15:12:07.311Z,65.39
2018-10-17T15:14:35.813Z,66.22
2018-10-17T15:17:05.721Z,66.67
2018-10-17T15:19:38.810Z,66.13
2018-10-17T15:22:07.689Z,66.74
2018-10-17T15:24:36.224Z,67.52
2018-10-17T15:27:07.201Z,67.95
2018-10-17T15:29:35.728Z,68.30
2018-10-17T15:32:05.190Z,67.13
2018-10-17T15:34:33.756Z,68.99
2018-10-17T15:37:04.107Z,68.59
2018-10-17T15:39:33.260Z,68.61
2018-10-17T15:42:03.184Z,68.99
2018-10-17T15:44:31.829Z,68.55
2018-10-17T15:47:00.496Z,70.06
2018-10-17T15:49:29.046Z,69.56
2018-10-17T15:51:57.563Z,69.46
2018-10-17T15:54:26.188Z,69.04
2018-10-17T15:56:54.762Z,69.01
2018-10-17T15:59:23.297Z,69.58
2018-10-17T16:01:51.856Z,69.41
2018-10-17T16:04:20.385Z,69.59
2018-10-17T16:06:48.942Z,70.63
2018-10-17T16:09:17.562Z,71.38
2018-10-17T16:11:46.121Z,71.18
2018-10-17T16:14:14.765Z,71.64
2018-10-17T16:16:43.210Z,71.74
2018-10-17T16:19:11.827Z,73.00
2018-10-17T16:21:40.347Z,72.82
2018-10-17T16:24:08.992Z,73.77
2018-10-17T16:26:37.599Z,73.95
2018-10-17T16:29:06.214Z,73.74
2018-10-17T16:31:34.778Z,74.86
2018-10-17T16:34:04.466Z,74.87
2018-10-17T16:36:33.288Z,75.41
2018-10-17T16:39:03.155Z,76.06
2018-10-17T16:41:31.842Z,76.43
2018-10-17T16:44:00.374Z,75.86
2018-10-17T16:46:29.168Z,76.09
2018-10-17T16:48:57.671Z,76.40
2018-10-17T16:51:26.245Z,77.14
2018-10-17T16:53:54.922Z,76.56
2018-10-17T16:56:23.458Z,77.32
2018-10-17T16:58:51.956Z,78.44
2018-10-17T17:01:20.888Z,78.62
2018-10-17T17:03:49.378Z,79.87
2018-10-17T17:06:17.953Z,80.55
2018-10-17T17:08:46.475Z,80.68
2018-10-17T17:11:15.090Z,80.40
2018-10-17T17:13:43.639Z,80.08
2018-10-17T17:16:12.231Z,79.12
2018-10-17T17:18:40.760Z,80.45
2018-10-17T17:21:09.763Z,81.73
2018-10-17T17:23:38.257Z,81.49
2018-10-17T17:26:06.786Z,81.17
2018-10-17T17:28:35.324Z,81.08
2018-10-17T17:31:05.903Z,80.36
2018-10-17T17:33:34.491Z,80.23
2018-10-17T17:36:06.520Z,80.64
2018-10-17T17:38:35.105Z,81.14
2018-10-17T17:41:07.106Z,80.85
2018-10-17T17:43:35.619Z,81.59
2018-10-17T17:46:05.667Z,81.49
2018-10-17T17:48:35.931Z,80.56
2018-10-17T17:51:05.198Z,81.08
2018-10-17T17:53:33.731Z,80.59
2018-10-17T17:56:04.024Z,81.42
2018-10-17T17:58:32.807Z,80.77
2018-10-17T18:01:02.784Z,81.05
2018-10-17T18:03:31.297Z,81.17
2018-10-17T18:06:00.153Z,81.21
2018-10-17T18:08:29.165Z,81.19
2018-10-17T18:11:04.469Z,81.15
2018-10-17T18:13:33.003Z,81.40
2018-10-17T18:16:03.684Z,80.55
2018-10-17T18:18:32.183Z,81.08
2018-10-17T18:21:00.733Z,81.22
2018-10-17T18:23:29.309Z,81.50
2018-10-17T18:25:57.867Z,82.12
2018-10-17T18:28:26.460Z,81.93
2018-10-17T18:30:55.318Z,83.01
2018-10-17T18:33:23.885Z,82.86
2018-10-17T18:35:52.449Z,83.32
2018-10-17T18:38:21.049Z,82.85
2018-10-17T18:40:49.619Z,83.06
2018-10-17T18:43:18.381Z,83.13
2018-10-17T18:45:47.273Z,83.55
2018-10-17T18:48:15.806Z,83.54
2018-10-17T18:50:44.430Z,84.30
2018-10-17T18:53:13.237Z,84.21
2018-10-17T18:55:42.505Z,84.91
2018-10-17T18:58:11.036Z,85.45
2018-10-17T19:00:39.950Z,85.42
2018-10-17T19:03:08.552Z,85.47
2018-10-17T19:05:38.031Z,86.21
2018-10-17T19:08:07.128Z,86.62
2018-10-17T19:10:35.889Z,85.76
2018-10-17T19:13:05.438Z,87.45
2018-10-17T19:15:34.385Z,87.26
2018-10-17T19:18:04.541Z,86.96
2018-10-17T19:20:33.116Z,87.95
2018-10-17T19:23:05.087Z,88.48
2018-10-17T19:25:33.628Z,88.58
2018-10-17T19:28:04.283Z,88.73
2018-10-17T19:30:33.003Z,88.64
2018-10-17T19:33:03.234Z,89.08
2018-10-17T19:35:31.817Z,89.05
2018-10-17T19:38:00.401Z,89.03
2018-10-17T19:40:29.155Z,89.32
2018-10-17T19:42:57.752Z,89.11
2018-10-17T19:45:26.339Z,89.29
2018-10-17T19:47:55.097Z,89.63
2018-10-17T19:50:23.878Z,89.19
2018-10-17T19:52:52.459Z,89.97
2018-10-17T19:55:21.062Z,89.42
2018-10-17T19:57:49.652Z,90.19
2018-10-17T20:00:18.227Z,89.92
2018-10-17T20:02:46.797Z,90.69
2018-10-17T20:05:15.434Z,90.24
2018-10-17T20:07:44.070Z,90.34
2018-10-17T20:10:12.683Z,90.44
2018-10-17T20:12:41.503Z,90.93
2018-10-17T20:15:10.150Z,90.46
2018-10-17T20:17:38.650Z,90.52
2018-10-17T20:20:07.353Z,90.84
2018-10-17T20:22:36.042Z,91.54
2018-10-17T20:25:06.552Z,91.86
2018-10-17T20:27:35.156Z,91.82
2018-10-17T20:30:06.938Z,91.23
2018-10-17T20:32:35.484Z,91.50
2018-10-17T20:35:07.838Z,92.24
2018-10-17T20:37:36.378Z,91.16
2018-10-17T20:40:05.239Z,91.41
2018-10-17T20:42:34.080Z,91.73
2018-10-17T20:45:03.942Z,92.08
2018-10-17T20:47:34.356Z,92.59
2018-10-17T20:50:04.105Z,92.72
2018-10-17T20:52:32.785Z,92.52
2018-10-17T20:55:02.752Z,92.64
2018-10-17T20:57:31.339Z,92.19
2018-10-17T20:59:59.910Z,92.41
2018-10-17T21:02:28.526Z,93.01
2018-10-17T21:04:57.082Z,92.86
2018-10-17T21:07:25.666Z,91.61
2018-10-17T21:09:54.203Z,91.74
2018-10-17T21:12:22.749Z,92.00
2018-10-17T21:14:51.704Z,91.87
2018-10-17T21:17:20.243Z,90.79
2018-10-17T21:19:48.792Z,91.33
2018-10-17T21:22:17.613Z,91.32
2018-10-17T21:24:46.136Z,90.66
2018-10-17T21:27:14.672Z,90.54
2018-10-17T21:29:43.222Z,90.30
2018-10-17T21:32:11.937Z,90.55
2018-10-17T21:34:40.447Z,90.75
2018-10-17T21:37:09.010Z,90.80
2018-10-17T21:39:37.593Z,90.20
2018-10-17T21:42:06.184Z,90.66
2018-10-17T21:44:34.766Z,90.43
2018-10-17T21:47:05.015Z,90.11
2018-10-17T21:49:33.602Z,89.53
2018-10-17T21:52:04.967Z,89.35
2018-10-17T21:54:33.611Z,89.00
2018-10-17T21:57:03.894Z,89.81
2018-10-17T21:59:32.464Z,89.23
2018-10-17T22:02:02.904Z,88.60
2018-10-17T22:04:31.569Z,89.13
2018-10-17T22:07:00.202Z,89.56
2018-10-17T22:09:28.752Z,89.38
2018-10-17T22:11:57.298Z,90.00
2018-10-17T22:14:25.970Z,89.92
2018-10-17T22:16:59.636Z,89.83
2018-10-17T22:19:28.306Z,89.36
2018-10-17T22:21:56.854Z,90.00
2018-10-17T22:24:25.381Z,89.58
2018-10-17T22:26:53.954Z,89.29
2018-10-17T22:29:22.581Z,89.30
2018-10-17T22:31:51.155Z,89.60
2018-10-17T22:34:19.732Z,88.99
2018-10-17T22:36:48.320Z,89.00
2018-10-17T22:39:17.131Z,89.00
2018-10-17T22:41:46.105Z,88.31
2018-10-17T22:44:14.732Z,88.38
2018-10-17T22:46:43.416Z,87.98
2018-10-17T22:49:12.196Z,88.02
2018-10-17T22:51:40.901Z,87.95
2018-10-17T22:54:09.476Z,87.73
2018-10-17T22:56:39.089Z,88.47
2018-10-17T22:59:07.645Z,87.92
2018-10-17T23:01:36.729Z,88.60
2018-10-17T23:04:05.803Z,88.38
2018-10-17T23:06:35.433Z,88.56
2018-10-17T23:09:09.598Z,87.89
2018-10-17T23:11:38.446Z,88.62
2018-10-17T23:14:07.469Z,88.65
2018-10-17T23:16:36.188Z,88.96
2018-10-17T23:19:05.874Z,88.59
2018-10-17T23:21:34.796Z,89.08
2018-10-17T23:24:04.568Z,88.94
2018-10-17T23:26:33.212Z,88.74
2018-10-17T23:29:03.357Z,88.77
2018-10-17T23:31:32.029Z,88.73
2018-10-17T23:34:00.523Z,88.23
2018-10-17T23:36:29.380Z,88.77
2018-10-17T23:38:57.881Z,88.40
2018-10-17T23:41:26.427Z,88.22
2018-10-17T23:43:55.231Z,88.00
2018-10-17T23:46:23.768Z,87.36
2018-10-17T23:48:52.926Z,87.99
2018-10-17T23:51:21.447Z,87.36
2018-10-17T23:53:50.173Z,87.56
2018-10-17T23:56:19.836Z,87.31
2018-10-17T23:58:48.460Z,87.15
